createdAt,value
2017-03-27T00:00:31.681Z,0
2017-03-27T00:01:40.755Z,0
2017-03-27T00:02:50.131Z,0
2017-03-27T00:03:59.502Z,0
2017-03-27T00:05:08.275Z,0
2017-03-27T00:06:17.029Z,0
2017-03-27T00:07:26.630Z,0
2017-03-27T00:08:36.303Z,0
2017-03-27T00:09:45.909Z,0
2017-03-27T00:10:55.269Z,0
2017-03-27T00:12:04.336Z,0
2017-03-27T00:13:13.403Z,0
2017-03-27T00:14:23.696Z,0
2017-03-27T00:15:32.772Z,0
2017-03-27T00:16:42.680Z,0
2017-03-27T00:17:52.972Z,0
2017-03-27T00:19:02.646Z,0
2017-03-27T00:20:11.944Z,0
2017-03-27T00:21:21.045Z,0
2017-03-27T00:22:30.424Z,0
2017-03-27T00:23:40.409Z,0
2017-03-27T00:24:50.080Z,0
2017-03-27T00:25:58.846Z,0
2017-03-27T00:27:07.923Z,0
2017-03-27T00:28:16.990Z,0
2017-03-27T00:29:26.663Z,0
2017-03-27T00:30:36.027Z,0
2017-03-27T00:31:45.028Z,0
2017-03-27T00:32:54.106Z,0
2017-03-27T00:34:02.800Z,0
2017-03-27T00:35:11.864Z,0
2017-03-27T00:36:21.229Z,0
2017-03-27T00:37:30.296Z,0
2017-03-27T00:38:39.675Z,0
2017-03-27T00:39:49.040Z,0
2017-03-27T00:40:58.412Z,0
2017-03-27T00:42:07.478Z,0
2017-03-27T00:43:17.154Z,0
2017-03-27T00:44:26.835Z,0
2017-03-27T00:45:36.206Z,0
2017-03-27T00:46:44.967Z,0
2017-03-27T00:47:54.651Z,0
2017-03-27T00:49:03.714Z,0
2017-03-27T00:50:12.787Z,0
2017-03-27T00:51:21.852Z,0
2017-03-27T00:52:30.549Z,0
2017-03-27T00:53:40.224Z,0
2017-03-27T00:54:49.894Z,0
2017-03-27T00:55:59.222Z,0
2017-03-27T00:57:07.988Z,0
2017-03-27T00:58:17.357Z,0
2017-03-27T00:59:27.038Z,0
2017-03-27T01:00:36.107Z,0
2017-03-27T01:01:45.169Z,0
2017-03-27T01:02:54.849Z,0
2017-03-27T01:04:03.919Z,0
2017-03-27T01:05:13.585Z,0
2017-03-27T01:06:22.651Z,0
2017-03-27T01:07:31.709Z,0
2017-03-27T01:08:41.078Z,0
2017-03-27T01:09:50.073Z,0
2017-03-27T01:10:59.745Z,0
2017-03-27T01:12:08.809Z,0
2017-03-27T01:13:18.176Z,0
2017-03-27T01:14:27.851Z,0
2017-03-27T01:15:36.907Z,0
2017-03-27T01:16:45.670Z,0
2017-03-27T01:17:55.945Z,0
2017-03-27T01:19:05.618Z,0
2017-03-27T01:20:14.380Z,0
2017-03-27T01:21:23.756Z,0
2017-03-27T01:22:32.831Z,0
2017-03-27T01:23:42.214Z,0
2017-03-27T01:24:51.284Z,0
2017-03-27T01:26:00.657Z,0
2017-03-27T01:27:09.424Z,0
2017-03-27T01:28:18.188Z,0
2017-03-27T01:29:27.573Z,0
2017-03-27T01:30:37.147Z,0
2017-03-27T01:31:46.527Z,0
2017-03-27T01:32:55.535Z,0
2017-03-27T01:34:04.907Z,0
2017-03-27T01:35:13.971Z,0
2017-03-27T01:36:23.033Z,0
2017-03-27T01:37:32.406Z,0
2017-03-27T01:38:41.170Z,0
2017-03-27T01:39:50.542Z,0
2017-03-27T01:40:59.918Z,0
2017-03-27T01:42:09.296Z,0
2017-03-27T01:43:18.671Z,0
2017-03-27T01:44:28.292Z,0
2017-03-27T01:45:37.655Z,0
2017-03-27T01:46:46.719Z,0
2017-03-27T01:47:56.397Z,0
2017-03-27T01:49:06.609Z,0
2017-03-27T01:50:15.372Z,0
2017-03-27T01:51:24.132Z,0
2017-03-27T01:52:33.130Z,0
2017-03-27T01:53:42.506Z,0
2017-03-27T01:54:51.806Z,0
2017-03-27T01:56:00.904Z,0
2017-03-27T01:57:10.273Z,0
2017-03-27T01:58:19.641Z,0
2017-03-27T01:59:29.315Z,0
2017-03-27T02:00:38.384Z,0
2017-03-27T02:01:47.753Z,0
2017-03-27T02:02:57.123Z,0
2017-03-27T02:04:07.114Z,0
2017-03-27T02:05:16.782Z,0
2017-03-27T02:06:26.154Z,0
2017-03-27T02:07:35.829Z,0
2017-03-27T02:08:45.206Z,0
2017-03-27T02:09:54.581Z,0
2017-03-27T02:11:03.942Z,0
2017-03-27T02:12:13.016Z,0
2017-03-27T02:13:22.385Z,0
2017-03-27T02:14:31.761Z,0
2017-03-27T02:15:40.828Z,0
2017-03-27T02:16:50.096Z,0
2017-03-27T02:17:59.403Z,0
2017-03-27T02:19:09.069Z,0
2017-03-27T02:20:18.160Z,0
2017-03-27T02:21:27.558Z,0
2017-03-27T02:22:37.263Z,0
2017-03-27T02:23:46.671Z,0
2017-03-27T02:24:56.156Z,0
2017-03-27T02:26:05.866Z,0
2017-03-27T02:27:14.966Z,0
2017-03-27T02:28:24.074Z,0
2017-03-27T02:29:33.722Z,0
2017-03-27T02:30:43.130Z,0
2017-03-27T02:31:52.252Z,0
2017-03-27T02:33:01.049Z,0
2017-03-27T02:34:10.445Z,0
2017-03-27T02:35:19.237Z,0
2017-03-27T02:36:28.313Z,0
2017-03-27T02:37:37.716Z,0
2017-03-27T02:38:47.078Z,0
2017-03-27T02:39:56.806Z,0
2017-03-27T02:41:05.903Z,0
2017-03-27T02:42:15.304Z,0
2017-03-27T02:43:24.717Z,0
2017-03-27T02:44:33.822Z,0
2017-03-27T02:45:42.913Z,0
2017-03-27T02:46:51.941Z,0
2017-03-27T02:48:01.587Z,0
2017-03-27T02:49:11.231Z,0
2017-03-27T02:50:20.878Z,0
2017-03-27T02:51:29.665Z,0
2017-03-27T02:52:38.756Z,0
2017-03-27T02:53:48.776Z,0
2017-03-27T02:54:58.986Z,0
2017-03-27T02:56:08.112Z,0
2017-03-27T02:57:16.832Z,0
2017-03-27T02:58:25.555Z,0
2017-03-27T02:59:34.661Z,0
2017-03-27T03:00:44.000Z,0
2017-03-27T03:01:53.408Z,0
2017-03-27T03:03:02.739Z,0
2017-03-27T03:04:11.844Z,0
2017-03-27T03:05:21.249Z,0
2017-03-27T03:06:30.041Z,0
2017-03-27T03:07:38.776Z,0
2017-03-27T03:08:48.487Z,0
2017-03-27T03:09:57.892Z,0
2017-03-27T03:11:07.293Z,0
2017-03-27T03:12:16.706Z,0
2017-03-27T03:13:26.407Z,0
2017-03-27T03:14:36.044Z,0
2017-03-27T03:15:45.127Z,0
2017-03-27T03:16:54.262Z,0
2017-03-27T03:18:03.615Z,0
2017-03-27T03:19:12.670Z,0
2017-03-27T03:20:22.365Z,0
2017-03-27T03:21:31.777Z,0
2017-03-27T03:22:41.491Z,0
2017-03-27T03:23:50.592Z,0
2017-03-27T03:24:59.966Z,0
2017-03-27T03:26:08.747Z,0
2017-03-27T03:27:18.153Z,0
2017-03-27T03:28:28.176Z,0
2017-03-27T03:29:37.513Z,0
2017-03-27T03:30:46.919Z,0
2017-03-27T03:31:55.714Z,0
2017-03-27T03:33:04.510Z,0
2017-03-27T03:34:13.923Z,0
2017-03-27T03:35:22.709Z,0
2017-03-27T03:36:31.486Z,0
2017-03-27T03:37:41.198Z,0
2017-03-27T03:38:51.159Z,0
2017-03-27T03:40:01.161Z,0
2017-03-27T03:41:10.085Z,0
2017-03-27T03:42:19.796Z,0
2017-03-27T03:43:29.503Z,0
2017-03-27T03:44:38.908Z,0
2017-03-27T03:45:47.940Z,0
2017-03-27T03:46:57.488Z,0
2017-03-27T03:48:06.894Z,0
2017-03-27T03:49:16.919Z,0
2017-03-27T03:50:26.563Z,0
2017-03-27T03:51:35.607Z,0
2017-03-27T03:52:45.314Z,0
2017-03-27T03:53:54.705Z,0
2017-03-27T03:55:04.151Z,0
2017-03-27T03:56:12.936Z,0
2017-03-27T03:57:22.340Z,0
2017-03-27T03:58:31.434Z,0
2017-03-27T03:59:40.156Z,0
2017-03-27T04:00:48.871Z,0
2017-03-27T04:01:57.972Z,0
2017-03-27T04:03:07.100Z,0
2017-03-27T04:04:15.890Z,0
2017-03-27T04:05:24.688Z,0
2017-03-27T04:06:33.480Z,0
2017-03-27T04:07:42.592Z,0
2017-03-27T04:08:52.598Z,0
2017-03-27T04:10:02.629Z,0
2017-03-27T04:11:11.929Z,0
2017-03-27T04:12:20.714Z,0
2017-03-27T04:13:29.777Z,0
2017-03-27T04:14:39.103Z,0
2017-03-27T04:15:48.135Z,0
2017-03-27T04:16:56.854Z,0
2017-03-27T04:18:06.567Z,0
2017-03-27T04:19:16.275Z,0
2017-03-27T04:20:25.369Z,0
2017-03-27T04:21:34.661Z,0
2017-03-27T04:22:44.676Z,0
2017-03-27T04:23:53.782Z,0
2017-03-27T04:25:03.444Z,0
2017-03-27T04:26:12.838Z,0
2017-03-27T04:27:22.246Z,0
2017-03-27T04:28:31.660Z,0
2017-03-27T04:29:41.079Z,0
2017-03-27T04:30:51.097Z,0
2017-03-27T04:32:00.645Z,0
2017-03-27T04:33:10.056Z,0
2017-03-27T04:34:19.773Z,0
2017-03-27T04:35:29.170Z,0
2017-03-27T04:36:38.567Z,0
2017-03-27T04:37:48.289Z,0
2017-03-27T04:38:57.688Z,0
2017-03-27T04:40:06.787Z,0
2017-03-27T04:41:15.573Z,0
2017-03-27T04:42:24.357Z,0
2017-03-27T04:43:33.772Z,0
2017-03-27T04:44:43.799Z,0
2017-03-27T04:45:52.585Z,0
2017-03-27T04:47:01.678Z,0
2017-03-27T04:48:10.791Z,0
2017-03-27T04:49:20.440Z,0
2017-03-27T04:50:29.845Z,0
2017-03-27T04:51:38.635Z,0
2017-03-27T04:52:47.737Z,0
2017-03-27T04:53:57.437Z,0
2017-03-27T04:55:06.842Z,0
2017-03-27T04:56:15.568Z,0
2017-03-27T04:57:25.202Z,0
2017-03-27T04:58:34.575Z,0
2017-03-27T04:59:43.311Z,0
2017-03-27T05:00:52.041Z,0
2017-03-27T05:02:01.457Z,0
2017-03-27T05:03:10.690Z,0
2017-03-27T05:04:20.418Z,0
2017-03-27T05:05:29.506Z,0
2017-03-27T05:06:38.291Z,0
2017-03-27T05:07:48.309Z,0
2017-03-27T05:08:58.666Z,0
2017-03-27T05:10:07.763Z,0
2017-03-27T05:11:16.552Z,0
2017-03-27T05:12:25.336Z,0
2017-03-27T05:13:35.049Z,0
2017-03-27T05:14:44.474Z,0
2017-03-27T05:15:53.250Z,0
2017-03-27T05:17:02.050Z,0
2017-03-27T05:18:11.148Z,0
2017-03-27T05:19:20.783Z,0
2017-03-27T05:20:30.197Z,0
2017-03-27T05:21:39.219Z,0
2017-03-27T05:22:48.319Z,0
2017-03-27T05:23:57.722Z,0
2017-03-27T05:25:06.815Z,0
2017-03-27T05:26:15.912Z,0
2017-03-27T05:27:25.013Z,0
2017-03-27T05:28:34.733Z,0
2017-03-27T05:29:43.834Z,0
2017-03-27T05:30:53.237Z,0
2017-03-27T05:32:02.264Z,0
2017-03-27T05:33:11.367Z,5
2017-03-27T05:34:20.703Z,5
2017-03-27T05:35:29.792Z,5
2017-03-27T05:36:39.502Z,5
2017-03-27T05:37:48.598Z,5
2017-03-27T05:38:58.817Z,5
2017-03-27T05:40:07.617Z,5
2017-03-27T05:41:16.639Z,5
2017-03-27T05:42:26.361Z,10
2017-03-27T05:43:36.080Z,10
2017-03-27T05:44:45.488Z,10
2017-03-27T05:45:54.284Z,10
2017-03-27T05:47:03.318Z,15
2017-03-27T05:48:12.654Z,15
2017-03-27T05:49:21.436Z,15
2017-03-27T05:50:30.517Z,15
2017-03-27T05:51:39.926Z,20
2017-03-27T05:52:49.572Z,20
2017-03-27T05:53:59.277Z,20
2017-03-27T05:55:08.616Z,20
2017-03-27T05:56:17.707Z,20
2017-03-27T05:57:26.805Z,20
2017-03-27T05:58:36.827Z,20
2017-03-27T05:59:45.929Z,20
2017-03-27T06:00:54.725Z,25
2017-03-27T06:02:03.821Z,25
2017-03-27T06:03:13.531Z,25
2017-03-27T06:04:23.174Z,25
2017-03-27T06:05:32.790Z,25
2017-03-27T06:06:42.488Z,25
2017-03-27T06:07:51.585Z,25
2017-03-27T06:09:01.301Z,25
2017-03-27T06:10:11.017Z,25
2017-03-27T06:11:19.778Z,25
2017-03-27T06:12:28.877Z,25
2017-03-27T06:13:38.789Z,25
2017-03-27T06:14:48.192Z,30
2017-03-27T06:15:57.496Z,30
2017-03-27T06:17:06.855Z,30
2017-03-27T06:18:16.201Z,30
2017-03-27T06:19:25.948Z,30
2017-03-27T06:20:34.714Z,30
2017-03-27T06:21:43.803Z,30
2017-03-27T06:22:52.828Z,30
2017-03-27T06:24:02.850Z,30
2017-03-27T06:25:11.943Z,30
2017-03-27T06:26:20.922Z,35
2017-03-27T06:27:30.328Z,35
2017-03-27T06:28:39.732Z,35
2017-03-27T06:29:48.826Z,35
2017-03-27T06:30:57.611Z,35
2017-03-27T06:32:06.714Z,35
2017-03-27T06:33:16.435Z,35
2017-03-27T06:34:26.397Z,35
2017-03-27T06:35:35.740Z,35
2017-03-27T06:36:45.034Z,40
2017-03-27T06:37:54.713Z,40
2017-03-27T06:39:04.367Z,40
2017-03-27T06:40:13.763Z,40
2017-03-27T06:41:22.858Z,40
2017-03-27T06:42:31.959Z,40
2017-03-27T06:43:41.355Z,45
2017-03-27T06:44:51.070Z,45
2017-03-27T06:46:00.162Z,50
2017-03-27T06:47:08.959Z,50
2017-03-27T06:48:18.053Z,50
2017-03-27T06:49:27.467Z,50
2017-03-27T06:50:36.273Z,50
2017-03-27T06:51:45.058Z,50
2017-03-27T06:52:54.663Z,50
2017-03-27T06:54:03.759Z,50
2017-03-27T06:55:12.789Z,55
2017-03-27T06:56:21.888Z,55
2017-03-27T06:57:31.231Z,55
2017-03-27T06:58:40.021Z,55
2017-03-27T06:59:49.433Z,60
2017-03-27T07:00:58.452Z,60
2017-03-27T07:02:07.287Z,60
2017-03-27T07:03:16.397Z,80
2017-03-27T07:04:25.210Z,160
2017-03-27T07:05:34.017Z,290
2017-03-27T07:06:43.371Z,340
2017-03-27T07:07:53.082Z,365
2017-03-27T07:09:03.101Z,385
2017-03-27T07:10:11.894Z,380
2017-03-27T07:11:20.948Z,405
2017-03-27T07:12:29.806Z,420
2017-03-27T07:13:39.538Z,420
2017-03-27T07:14:49.173Z,435
2017-03-27T07:15:58.268Z,455
2017-03-27T07:17:07.066Z,450
2017-03-27T07:18:15.829Z,450
2017-03-27T07:19:25.250Z,470
2017-03-27T07:20:34.340Z,480
2017-03-27T07:21:43.084Z,475
2017-03-27T07:22:52.794Z,500
2017-03-27T07:24:02.426Z,495
2017-03-27T07:25:11.198Z,500
2017-03-27T07:26:19.970Z,525
2017-03-27T07:27:29.305Z,505
2017-03-27T07:28:38.717Z,485
2017-03-27T07:29:47.806Z,495
2017-03-27T07:30:56.595Z,345
2017-03-27T07:32:05.707Z,155
2017-03-27T07:33:15.112Z,130
2017-03-27T07:34:23.911Z,125
2017-03-27T07:35:33.329Z,130
2017-03-27T07:36:42.116Z,125
2017-03-27T07:37:51.752Z,125
2017-03-27T07:39:01.158Z,125
2017-03-27T07:40:10.260Z,125
2017-03-27T07:41:19.661Z,125
2017-03-27T07:42:28.455Z,125
2017-03-27T07:43:37.552Z,125
2017-03-27T07:44:46.644Z,130
2017-03-27T07:45:55.977Z,130
2017-03-27T07:47:05.098Z,125
2017-03-27T07:48:15.109Z,125
2017-03-27T07:49:24.754Z,125
2017-03-27T07:50:33.881Z,125
2017-03-27T07:51:42.676Z,125
2017-03-27T07:52:52.081Z,125
2017-03-27T07:54:01.181Z,125
2017-03-27T07:55:10.292Z,125
2017-03-27T07:56:19.078Z,125
2017-03-27T07:57:27.874Z,120
2017-03-27T07:58:37.596Z,120
2017-03-27T07:59:46.983Z,120
2017-03-27T08:00:56.086Z,120
2017-03-27T08:02:04.882Z,120
2017-03-27T08:03:14.269Z,130
2017-03-27T08:04:23.363Z,125
2017-03-27T08:05:32.466Z,125
2017-03-27T08:06:41.555Z,125
2017-03-27T08:07:51.455Z,125
2017-03-27T08:09:01.710Z,130
2017-03-27T08:10:10.496Z,125
2017-03-27T08:11:19.832Z,125
2017-03-27T08:12:28.932Z,130
2017-03-27T08:13:38.341Z,130
2017-03-27T08:14:47.445Z,130
2017-03-27T08:15:56.551Z,130
2017-03-27T08:17:05.345Z,130
2017-03-27T08:18:14.760Z,130
2017-03-27T08:19:24.174Z,130
2017-03-27T08:20:33.279Z,130
2017-03-27T08:21:42.376Z,130
2017-03-27T08:22:52.080Z,130
2017-03-27T08:24:01.179Z,130
2017-03-27T08:25:10.478Z,130
2017-03-27T08:26:19.202Z,130
2017-03-27T08:27:27.997Z,130
2017-03-27T08:28:37.090Z,135
2017-03-27T08:29:46.218Z,135
2017-03-27T08:30:55.552Z,135
2017-03-27T08:32:04.642Z,135
2017-03-27T08:33:14.672Z,135
2017-03-27T08:34:24.399Z,135
2017-03-27T08:35:33.816Z,135
2017-03-27T08:36:43.285Z,135
2017-03-27T08:37:52.631Z,135
2017-03-27T08:39:01.717Z,135
2017-03-27T08:40:10.508Z,135
2017-03-27T08:41:19.606Z,135
2017-03-27T08:42:29.242Z,135
2017-03-27T08:43:38.643Z,135
2017-03-27T08:44:47.751Z,135
2017-03-27T08:45:56.551Z,135
2017-03-27T08:47:05.951Z,135
2017-03-27T08:48:15.060Z,135
2017-03-27T08:49:24.146Z,135
2017-03-27T08:50:32.966Z,135
2017-03-27T08:51:42.098Z,135
2017-03-27T08:52:50.888Z,135
2017-03-27T08:54:00.630Z,135
2017-03-27T08:55:09.427Z,135
2017-03-27T08:56:18.859Z,135
2017-03-27T08:57:27.947Z,140
2017-03-27T08:58:37.352Z,140
2017-03-27T08:59:46.148Z,140
2017-03-27T09:00:55.241Z,145
2017-03-27T09:02:04.651Z,165
2017-03-27T09:03:13.376Z,160
2017-03-27T09:04:23.086Z,425
2017-03-27T09:05:31.881Z,975
2017-03-27T09:06:40.979Z,1115
2017-03-27T09:07:50.704Z,1275
2017-03-27T09:09:00.718Z,1240
2017-03-27T09:10:10.019Z,1185
2017-03-27T09:11:19.737Z,965
2017-03-27T09:12:28.835Z,385
2017-03-27T09:13:37.930Z,235
2017-03-27T09:14:47.265Z,240
2017-03-27T09:15:56.660Z,560
2017-03-27T09:17:05.756Z,1240
2017-03-27T09:18:15.464Z,1295
2017-03-27T09:19:25.176Z,1265
2017-03-27T09:20:34.265Z,1265
2017-03-27T09:21:43.056Z,1325
2017-03-27T09:22:52.461Z,1305
2017-03-27T09:24:02.487Z,1355
2017-03-27T09:25:11.597Z,1395
2017-03-27T09:26:20.920Z,1380
2017-03-27T09:27:30.021Z,1315
2017-03-27T09:28:39.724Z,1345
2017-03-27T09:29:48.535Z,1385
2017-03-27T09:30:57.263Z,1360
2017-03-27T09:32:06.050Z,1330
2017-03-27T09:33:15.703Z,1345
2017-03-27T09:34:25.105Z,1400
2017-03-27T09:35:34.192Z,1415
2017-03-27T09:36:43.118Z,1430
2017-03-27T09:37:52.842Z,1440
2017-03-27T09:39:02.555Z,1460
2017-03-27T09:40:11.282Z,1460
2017-03-27T09:41:20.694Z,1455
2017-03-27T09:42:29.794Z,1470
2017-03-27T09:43:39.199Z,1525
2017-03-27T09:44:48.602Z,1485
2017-03-27T09:45:57.395Z,1500
2017-03-27T09:47:07.005Z,1545
2017-03-27T09:48:15.738Z,1545
2017-03-27T09:49:24.832Z,1555
2017-03-27T09:50:33.931Z,1535
2017-03-27T09:51:43.038Z,1500
2017-03-27T09:52:52.755Z,1460
2017-03-27T09:54:02.146Z,1435
2017-03-27T09:55:11.252Z,1475
2017-03-27T09:56:20.343Z,1510
2017-03-27T09:57:29.642Z,1550
2017-03-27T09:58:39.358Z,1515
2017-03-27T09:59:48.099Z,1565
2017-03-27T10:00:56.890Z,1665
2017-03-27T10:02:06.293Z,1580
2017-03-27T10:03:15.037Z,995
2017-03-27T10:04:24.076Z,470
2017-03-27T10:05:33.178Z,425
2017-03-27T10:06:42.284Z,425
2017-03-27T10:07:51.593Z,420
2017-03-27T10:09:01.353Z,415
2017-03-27T10:10:10.149Z,405
2017-03-27T10:11:18.881Z,385
2017-03-27T10:12:27.999Z,370
2017-03-27T10:13:37.411Z,370
2017-03-27T10:14:46.514Z,360
2017-03-27T10:15:55.680Z,355
2017-03-27T10:17:04.479Z,355
2017-03-27T10:18:14.185Z,355
2017-03-27T10:19:23.222Z,360
2017-03-27T10:20:32.323Z,360
2017-03-27T10:21:41.109Z,370
2017-03-27T10:22:50.838Z,385
2017-03-27T10:24:00.248Z,395
2017-03-27T10:25:09.362Z,385
2017-03-27T10:26:18.760Z,385
2017-03-27T10:27:27.558Z,375
2017-03-27T10:28:37.288Z,365
2017-03-27T10:29:46.685Z,360
2017-03-27T10:30:55.786Z,355
2017-03-27T10:32:05.124Z,360
2017-03-27T10:33:14.469Z,560
2017-03-27T10:34:24.185Z,970
2017-03-27T10:35:32.965Z,1375
2017-03-27T10:36:42.406Z,1660
2017-03-27T10:37:51.517Z,1670
2017-03-27T10:39:00.927Z,1665
2017-03-27T10:40:10.344Z,1645
2017-03-27T10:41:19.142Z,1700
2017-03-27T10:42:28.549Z,1710
2017-03-27T10:43:38.265Z,1655
2017-03-27T10:44:47.366Z,1590
2017-03-27T10:45:56.155Z,1615
2017-03-27T10:47:05.576Z,1650
2017-03-27T10:48:15.234Z,1670
2017-03-27T10:49:24.953Z,1630
2017-03-27T10:50:34.034Z,1605
2017-03-27T10:51:42.831Z,1625
2017-03-27T10:52:51.924Z,1590
2017-03-27T10:54:02.021Z,1630
2017-03-27T10:55:11.119Z,1640
2017-03-27T10:56:20.193Z,1610
2017-03-27T10:57:29.598Z,1645
2017-03-27T10:58:39.616Z,1610
2017-03-27T10:59:49.342Z,1590
2017-03-27T11:00:58.127Z,1600
2017-03-27T11:02:07.224Z,1540
2017-03-27T11:03:16.338Z,1620
2017-03-27T11:04:25.648Z,1655
2017-03-27T11:05:34.451Z,1655
2017-03-27T11:06:43.178Z,1595
2017-03-27T11:07:52.585Z,1650
2017-03-27T11:09:01.997Z,1745
2017-03-27T11:10:10.812Z,1730
2017-03-27T11:11:20.158Z,1680
2017-03-27T11:12:29.262Z,1705
2017-03-27T11:13:38.382Z,1610
2017-03-27T11:14:47.488Z,1695
2017-03-27T11:15:56.838Z,1710
2017-03-27T11:17:05.937Z,1685
2017-03-27T11:18:15.646Z,1310
2017-03-27T11:19:25.064Z,450
2017-03-27T11:20:34.474Z,985
2017-03-27T11:21:43.270Z,1675
2017-03-27T11:22:52.675Z,1660
2017-03-27T11:24:02.398Z,1680
2017-03-27T11:25:11.503Z,1635
2017-03-27T11:26:20.299Z,1595
2017-03-27T11:27:29.104Z,1585
2017-03-27T11:28:37.904Z,1550
2017-03-27T11:29:47.628Z,1490
2017-03-27T11:30:56.427Z,1430
2017-03-27T11:32:05.535Z,1480
2017-03-27T11:33:15.256Z,1545
2017-03-27T11:34:24.972Z,1445
2017-03-27T11:35:34.014Z,1465
2017-03-27T11:36:43.118Z,1530
2017-03-27T11:37:52.529Z,1520
2017-03-27T11:39:02.251Z,1520
2017-03-27T11:40:11.629Z,1495
2017-03-27T11:41:21.286Z,1425
2017-03-27T11:42:30.076Z,1495
2017-03-27T11:43:39.440Z,1520
2017-03-27T11:44:48.534Z,1425
2017-03-27T11:45:57.364Z,1420
2017-03-27T11:47:06.200Z,1385
2017-03-27T11:48:15.022Z,1370
2017-03-27T11:49:24.154Z,1320
2017-03-27T11:50:32.990Z,1325
2017-03-27T11:51:42.084Z,1415
2017-03-27T11:52:50.886Z,1485
2017-03-27T11:54:00.311Z,1460
2017-03-27T11:55:09.112Z,1575
2017-03-27T11:56:17.862Z,1540
2017-03-27T11:57:27.271Z,1570
2017-03-27T11:58:36.084Z,1595
2017-03-27T11:59:44.887Z,1610
2017-03-27T12:00:53.702Z,1655
2017-03-27T12:02:02.701Z,1675
2017-03-27T12:03:11.510Z,1690
2017-03-27T12:04:20.327Z,1400
2017-03-27T12:05:29.472Z,375
2017-03-27T12:06:38.211Z,140
2017-03-27T12:07:47.313Z,125
2017-03-27T12:08:56.350Z,115
2017-03-27T12:10:05.750Z,100
2017-03-27T12:11:14.854Z,95
2017-03-27T12:12:24.258Z,90
2017-03-27T12:13:33.367Z,90
2017-03-27T12:14:43.102Z,90
2017-03-27T12:15:52.158Z,85
2017-03-27T12:17:01.583Z,85
2017-03-27T12:18:10.678Z,85
2017-03-27T12:19:20.095Z,85
2017-03-27T12:20:29.196Z,85
2017-03-27T12:21:38.678Z,85
2017-03-27T12:22:47.773Z,80
2017-03-27T12:23:56.866Z,80
2017-03-27T12:25:05.954Z,75
2017-03-27T12:26:14.704Z,75
2017-03-27T12:27:23.511Z,75
2017-03-27T12:28:32.303Z,70
2017-03-27T12:29:41.109Z,70
2017-03-27T12:30:49.931Z,70
2017-03-27T12:31:58.699Z,70
2017-03-27T12:33:07.812Z,70
2017-03-27T12:34:16.620Z,70
2017-03-27T12:35:25.411Z,70
2017-03-27T12:36:34.502Z,70
2017-03-27T12:37:43.311Z,65
2017-03-27T12:38:52.403Z,65
2017-03-27T12:40:01.407Z,65
2017-03-27T12:41:10.208Z,65
2017-03-27T12:42:18.959Z,65
2017-03-27T12:43:27.743Z,65
2017-03-27T12:44:36.566Z,65
2017-03-27T12:45:45.293Z,60
2017-03-27T12:46:54.086Z,60
2017-03-27T12:48:02.878Z,60
2017-03-27T12:49:11.673Z,60
2017-03-27T12:50:20.470Z,60
2017-03-27T12:51:29.271Z,60
2017-03-27T12:52:38.357Z,60
2017-03-27T12:53:47.748Z,60
2017-03-27T12:54:56.868Z,60
2017-03-27T12:56:05.885Z,55
2017-03-27T12:57:14.972Z,55
2017-03-27T12:58:23.776Z,55
2017-03-27T12:59:32.560Z,55
2017-03-27T13:00:41.345Z,55
2017-03-27T13:01:50.179Z,55
2017-03-27T13:02:59.580Z,55
2017-03-27T13:04:08.972Z,55
2017-03-27T13:05:18.374Z,55
2017-03-27T13:06:27.675Z,55
2017-03-27T13:07:37.282Z,55
2017-03-27T13:08:46.690Z,55
2017-03-27T13:09:56.644Z,55
2017-03-27T13:11:06.248Z,55
2017-03-27T13:12:15.035Z,55
2017-03-27T13:13:24.330Z,55
2017-03-27T13:14:33.124Z,55
2017-03-27T13:15:42.210Z,55
2017-03-27T13:16:51.313Z,55
2017-03-27T13:18:00.428Z,55
2017-03-27T13:19:09.472Z,50
2017-03-27T13:20:18.565Z,50
2017-03-27T13:21:27.359Z,50
2017-03-27T13:22:36.768Z,50
2017-03-27T13:23:45.552Z,50
2017-03-27T13:24:54.653Z,50
2017-03-27T13:26:04.307Z,50
2017-03-27T13:27:13.095Z,50
2017-03-27T13:28:21.889Z,50
2017-03-27T13:29:30.614Z,45
2017-03-27T13:30:39.699Z,50
2017-03-27T13:31:48.787Z,45
2017-03-27T13:32:57.813Z,45
2017-03-27T13:34:07.869Z,45
2017-03-27T13:35:17.514Z,45
2017-03-27T13:36:26.305Z,45
2017-03-27T13:37:35.598Z,45
2017-03-27T13:38:44.674Z,45
2017-03-27T13:39:53.792Z,45
2017-03-27T13:41:03.205Z,45
2017-03-27T13:42:12.016Z,45
2017-03-27T13:43:21.732Z,45
2017-03-27T13:44:30.837Z,45
2017-03-27T13:45:39.624Z,45
2017-03-27T13:46:48.414Z,45
2017-03-27T13:47:57.811Z,45
2017-03-27T13:49:06.901Z,45
2017-03-27T13:50:15.994Z,45
2017-03-27T13:51:24.791Z,45
2017-03-27T13:52:33.574Z,40
2017-03-27T13:53:42.357Z,40
2017-03-27T13:54:51.142Z,40
2017-03-27T13:55:59.934Z,40
2017-03-27T13:57:08.655Z,40
2017-03-27T13:58:17.747Z,40
2017-03-27T13:59:26.734Z,40
2017-03-27T14:00:35.537Z,40
2017-03-27T14:01:44.333Z,40
2017-03-27T14:02:53.128Z,40
2017-03-27T14:04:01.911Z,40
2017-03-27T14:05:10.704Z,35
2017-03-27T14:06:19.498Z,35
2017-03-27T14:07:28.595Z,35
2017-03-27T14:08:37.981Z,35
2017-03-27T14:09:46.775Z,35
2017-03-27T14:10:56.105Z,35
2017-03-27T14:12:05.502Z,35
2017-03-27T14:13:14.807Z,35
2017-03-27T14:14:23.904Z,35
2017-03-27T14:15:32.695Z,35
2017-03-27T14:16:41.801Z,35
2017-03-27T14:17:51.514Z,35
2017-03-27T14:19:00.296Z,35
2017-03-27T14:20:09.019Z,35
2017-03-27T14:21:17.800Z,35
2017-03-27T14:22:26.524Z,35
2017-03-27T14:23:35.316Z,30
2017-03-27T14:24:44.099Z,30
2017-03-27T14:25:53.192Z,30
2017-03-27T14:27:02.296Z,30
2017-03-27T14:28:11.075Z,30
2017-03-27T14:29:19.866Z,30
2017-03-27T14:30:28.644Z,30
2017-03-27T14:31:37.750Z,30
2017-03-27T14:32:46.534Z,30
2017-03-27T14:33:55.255Z,30
2017-03-27T14:35:04.028Z,30
2017-03-27T14:36:13.119Z,30
2017-03-27T14:37:22.421Z,30
2017-03-27T14:38:31.212Z,30
2017-03-27T14:39:40.004Z,30
2017-03-27T14:40:49.024Z,30
2017-03-27T14:41:58.117Z,30
2017-03-27T14:43:06.922Z,30
2017-03-27T14:44:16.039Z,30
2017-03-27T14:45:25.135Z,30
2017-03-27T14:46:34.158Z,30
2017-03-27T14:47:43.506Z,30
2017-03-27T14:48:52.910Z,30
2017-03-27T14:50:01.684Z,30
2017-03-27T14:51:11.023Z,30
2017-03-27T14:52:20.115Z,25
2017-03-27T14:53:28.910Z,25
2017-03-27T14:54:38.002Z,25
2017-03-27T14:55:47.098Z,25
2017-03-27T14:56:56.503Z,25
2017-03-27T14:58:06.235Z,25
2017-03-27T14:59:15.627Z,25
2017-03-27T15:00:24.724Z,25
2017-03-27T15:01:33.691Z,25
2017-03-27T15:02:42.723Z,25
2017-03-27T15:03:52.701Z,25
2017-03-27T15:05:02.362Z,25
2017-03-27T15:06:11.461Z,25
2017-03-27T15:07:20.556Z,25
2017-03-27T15:08:30.278Z,25
2017-03-27T15:09:39.678Z,25
2017-03-27T15:10:48.405Z,25
2017-03-27T15:11:57.807Z,25
2017-03-27T15:13:07.233Z,25
2017-03-27T15:14:16.647Z,25
2017-03-27T15:15:25.752Z,25
2017-03-27T15:16:34.844Z,25
2017-03-27T15:17:44.177Z,25
2017-03-27T15:18:53.583Z,25
2017-03-27T15:20:02.681Z,25
2017-03-27T15:21:11.470Z,25
2017-03-27T15:22:20.871Z,25
2017-03-27T15:23:29.973Z,20
2017-03-27T15:24:38.760Z,20
2017-03-27T15:25:47.792Z,20
2017-03-27T15:26:56.888Z,20
2017-03-27T15:28:06.292Z,20
2017-03-27T15:29:15.080Z,20
2017-03-27T15:30:24.183Z,20
2017-03-27T15:31:33.211Z,20
2017-03-27T15:32:42.623Z,20
2017-03-27T15:33:51.728Z,20
2017-03-27T15:35:01.373Z,20
2017-03-27T15:36:10.777Z,20
2017-03-27T15:37:19.582Z,20
2017-03-27T15:38:28.377Z,20
2017-03-27T15:39:38.393Z,20
2017-03-27T15:40:47.499Z,20
2017-03-27T15:41:56.282Z,20
2017-03-27T15:43:05.376Z,20
2017-03-27T15:44:15.087Z,15
2017-03-27T15:45:24.485Z,15
2017-03-27T15:46:33.265Z,15
2017-03-27T15:47:42.661Z,15
2017-03-27T15:48:51.772Z,15
2017-03-27T15:50:01.498Z,15
2017-03-27T15:51:10.601Z,15
2017-03-27T15:52:19.705Z,15
2017-03-27T15:53:29.712Z,15
2017-03-27T15:54:38.946Z,15
2017-03-27T15:55:47.733Z,15
2017-03-27T15:56:57.123Z,15
2017-03-27T15:58:06.825Z,15
2017-03-27T15:59:15.890Z,15
2017-03-27T16:00:24.672Z,15
2017-03-27T16:01:33.455Z,15
2017-03-27T16:02:42.553Z,15
2017-03-27T16:03:52.272Z,15
2017-03-27T16:05:02.288Z,15
2017-03-27T16:06:11.084Z,15
2017-03-27T16:07:19.868Z,15
2017-03-27T16:08:29.272Z,15
2017-03-27T16:09:38.366Z,15
2017-03-27T16:10:47.389Z,15
2017-03-27T16:11:56.165Z,15
2017-03-27T16:13:05.270Z,15
2017-03-27T16:14:14.680Z,15
2017-03-27T16:15:23.768Z,15
2017-03-27T16:16:32.863Z,15
2017-03-27T16:17:41.788Z,15
2017-03-27T16:18:51.733Z,15
2017-03-27T16:20:01.076Z,15
2017-03-27T16:21:10.498Z,15
2017-03-27T16:22:19.526Z,15
2017-03-27T16:23:29.162Z,15